createdAt,value
2018-11-22T00:01:32.270Z,44.10
2018-11-22T00:04:05.729Z,44.53
2018-11-22T00:06:39.228Z,43.07
2018-11-22T00:09:14.346Z,41.43
2018-11-22T00:11:48.325Z,39.80
2018-11-22T00:14:21.685Z,42.67
2018-11-22T00:16:55.006Z,45.90
2018-11-22T00:19:28.689Z,43.27
2018-11-22T00:22:01.951Z,42.37
2018-11-22T00:24:35.729Z,39.30
2018-11-22T00:27:07.986Z,44.30
2018-11-22T00:29:41.568Z,43.23
2018-11-22T00:32:15.095Z,41.33
2018-11-22T00:34:48.407Z,42.07
2018-11-22T00:37:21.619Z,42.60
2018-11-22T00:39:55.484Z,39.97
2018-11-22T00:42:29.004Z,44.10
2018-11-22T00:45:02.937Z,39.90
2018-11-22T00:47:35.111Z,41.40
2018-11-22T00:50:10.431Z,41.57
2018-11-22T00:52:44.186Z,42.23
2018-11-22T00:55:22.531Z,40.23
2018-11-22T00:57:56.284Z,42.83
2018-11-22T01:00:30.448Z,43.30
2018-11-22T01:03:02.589Z,39.33
2018-11-22T01:05:36.628Z,37.60
2018-11-22T01:08:10.688Z,40.97
2018-11-22T01:10:40.368Z,39.53
2018-11-22T01:13:17.428Z,42.30
2018-11-22T01:15:51.268Z,42.40
2018-11-22T01:18:23.340Z,42.97
2018-11-22T01:20:56.886Z,40.33
2018-11-22T01:23:32.366Z,38.60
2018-11-22T01:26:06.128Z,37.60
2018-11-22T01:28:40.148Z,39.70
2018-11-22T01:31:14.198Z,42.40
2018-11-22T01:33:47.778Z,40.17
2018-11-22T01:36:21.679Z,40.33
2018-11-22T01:38:55.181Z,37.17
2018-11-22T01:41:29.954Z,35.70
2018-11-22T01:44:03.416Z,40.57
2018-11-22T01:46:37.146Z,36.23
2018-11-22T01:49:13.274Z,40.93
2018-11-22T01:51:46.628Z,38.80
2018-11-22T01:54:20.465Z,38.87
2018-11-22T01:56:52.627Z,37.10
2018-11-22T01:59:26.809Z,39.37
2018-11-22T02:02:00.391Z,37.43
2018-11-22T02:04:36.699Z,39.10
2018-11-22T02:07:09.138Z,37.17
2018-11-22T02:09:42.881Z,38.80
2018-11-22T02:12:16.045Z,38.10
2018-11-22T02:14:48.174Z,39.40
2018-11-22T02:17:21.760Z,38.90
2018-11-22T02:19:58.009Z,41.20
2018-11-22T02:22:31.624Z,37.60
2018-11-22T02:25:05.350Z,39.43
2018-11-22T02:27:38.600Z,42.37
2018-11-22T02:30:17.444Z,40.00
2018-11-22T02:32:52.564Z,40.83
2018-11-22T02:35:26.198Z,40.70
2018-11-22T02:40:42.375Z,39.03
2018-11-22T02:43:12.283Z,42.87
2018-11-22T02:45:46.179Z,35.20
2018-11-22T02:48:19.387Z,38.20
2018-11-22T02:50:49.455Z,35.47
2018-11-22T02:53:23.115Z,38.63
2018-11-22T02:55:54.268Z,39.37
2018-11-22T02:58:28.275Z,37.77
2018-11-22T03:00:58.159Z,38.07
2018-11-22T03:03:31.665Z,39.57
2018-11-22T03:06:03.140Z,39.93
2018-11-22T03:08:38.293Z,38.33
2018-11-22T03:11:09.625Z,35.33
2018-11-22T03:13:43.299Z,37.47
2018-11-22T03:16:14.358Z,39.67
2018-11-22T03:18:48.643Z,37.70
2018-11-22T03:21:18.712Z,39.40
2018-11-22T03:23:52.505Z,39.60
2018-11-22T03:26:23.469Z,37.10
2018-11-22T03:28:58.229Z,39.60
2018-11-22T03:31:29.778Z,36.90
2018-11-22T03:34:01.835Z,38.67
2018-11-22T03:36:33.106Z,37.17
2018-11-22T03:39:06.964Z,34.77
2018-11-22T03:41:38.475Z,39.00
2018-11-22T03:44:12.397Z,39.27
2018-11-22T03:46:43.460Z,36.07
2018-11-22T03:49:16.728Z,36.90
2018-11-22T03:51:47.702Z,39.50
2018-11-22T03:54:21.874Z,37.60
2018-11-22T03:56:53.198Z,40.43
2018-11-22T03:59:25.477Z,40.73
2018-11-22T04:01:57.040Z,37.90
2018-11-22T04:04:30.883Z,41.17
2018-11-22T04:07:01.892Z,39.97
2018-11-22T04:09:35.951Z,37.77
2018-11-22T04:12:07.201Z,35.60
2018-11-22T04:14:41.137Z,36.43
2018-11-22T04:17:11.276Z,39.90
2018-11-22T04:19:47.746Z,41.70
2018-11-22T04:22:17.436Z,39.30
2018-11-22T04:24:50.690Z,38.13
2018-11-22T04:27:20.462Z,37.10
2018-11-22T04:29:54.379Z,36.37
2018-11-22T04:32:25.941Z,36.80
2018-11-22T04:34:59.680Z,35.90
2018-11-22T04:37:31.064Z,37.23
2018-11-22T04:40:04.538Z,38.70
2018-11-22T04:42:36.008Z,38.07
2018-11-22T04:45:10.388Z,39.07
2018-11-22T04:47:42.077Z,37.97
2018-11-22T04:50:17.207Z,37.37
2018-11-22T04:52:49.365Z,37.30
2018-11-22T04:55:23.030Z,38.40
2018-11-22T04:57:57.925Z,35.70
2018-11-22T05:00:28.709Z,36.97
2018-11-22T05:02:59.778Z,37.90
2018-11-22T05:05:32.311Z,35.87
2018-11-22T05:08:01.977Z,34.50
2018-11-22T05:10:35.321Z,38.60
2018-11-22T05:13:04.955Z,37.80
2018-11-22T05:15:38.312Z,39.20
2018-11-22T05:18:08.185Z,37.77
2018-11-22T05:20:42.078Z,33.17
2018-11-22T05:23:13.591Z,37.00
2018-11-22T05:25:50.957Z,37.67
2018-11-22T05:28:22.130Z,35.70
2018-11-22T05:30:58.925Z,37.70
2018-11-22T05:33:30.440Z,37.00
2018-11-22T05:36:02.497Z,37.30
2018-11-22T05:38:33.643Z,37.13
2018-11-22T05:41:07.805Z,37.87
2018-11-22T05:43:39.215Z,36.10
2018-11-22T05:46:11.658Z,35.60
2018-11-22T05:48:43.856Z,36.87
2018-11-22T05:51:17.381Z,39.87
2018-11-22T05:56:17.599Z,37.93
2018-11-22T05:58:51.523Z,34.17
2018-11-22T06:01:22.928Z,37.67
2018-11-22T06:03:56.256Z,34.67
2018-11-22T06:06:27.541Z,38.77
2018-11-22T06:09:01.642Z,36.27
2018-11-22T06:11:33.135Z,37.27
2018-11-22T06:14:05.192Z,35.73
2018-11-22T06:16:36.605Z,40.63
2018-11-22T06:19:10.339Z,36.20
2018-11-22T06:21:41.672Z,36.37
2018-11-22T06:24:18.442Z,35.47
2018-11-22T06:26:49.539Z,39.07
2018-11-22T06:29:23.250Z,37.07
2018-11-22T06:31:55.020Z,34.73
2018-11-22T06:34:28.955Z,33.37
2018-11-22T06:37:00.152Z,35.27
2018-11-22T06:39:34.103Z,35.87
2018-11-22T06:42:05.352Z,34.77
2018-11-22T06:44:39.493Z,34.67
2018-11-22T06:47:11.124Z,32.30
2018-11-22T06:49:45.085Z,36.27
2018-11-22T06:52:16.383Z,38.07
2018-11-22T06:54:49.976Z,34.93
2018-11-22T06:57:21.509Z,36.47
2018-11-22T06:59:55.265Z,33.53
2018-11-22T07:02:26.515Z,38.67
2018-11-22T07:05:00.253Z,32.77
2018-11-22T07:07:31.201Z,35.20
2018-11-22T07:10:03.273Z,34.77
2018-11-22T07:12:34.868Z,35.60
2018-11-22T07:17:52.228Z,35.87
2018-11-22T07:20:24.269Z,36.43
2018-11-22T07:22:57.201Z,36.43
2018-11-22T07:25:33.038Z,35.80
2018-11-22T07:30:42.553Z,32.60
2018-11-22T07:33:14.217Z,34.13
2018-11-22T07:38:25.332Z,36.83
2018-11-22T07:40:57.640Z,35.63
2018-11-22T07:43:28.985Z,31.27
2018-11-22T07:46:05.979Z,35.37
2018-11-22T07:48:37.486Z,30.57
2018-11-22T07:51:11.417Z,34.30
2018-11-22T07:53:42.459Z,34.97
2018-11-22T07:56:16.375Z,34.57
2018-11-22T07:58:47.383Z,34.20
2018-11-22T08:01:17.667Z,35.00
2018-11-22T08:04:06.574Z,37.77
2018-11-22T08:06:36.758Z,34.20
2018-11-22T08:09:08.824Z,35.20
2018-11-22T08:11:39.394Z,31.33
2018-11-22T08:14:09.839Z,35.13
2018-11-22T08:16:40.072Z,34.53
2018-11-22T08:21:45.401Z,34.57
2018-11-22T08:24:16.460Z,33.37
2018-11-22T08:26:51.167Z,35.30
2018-11-22T08:29:23.763Z,33.37
2018-11-22T08:32:01.803Z,32.93
2018-11-22T08:37:09.436Z,34.73
2018-11-22T08:37:18.556Z,34.80
2018-11-22T08:39:49.496Z,36.60
2018-11-22T08:47:36.869Z,33.27
2018-11-22T08:50:08.318Z,31.83
2018-11-22T08:52:43.455Z,28.83
2018-11-22T08:55:15.252Z,31.93
2018-11-22T08:57:47.880Z,33.47
2018-11-22T09:00:20.461Z,34.50
2018-11-22T09:05:30.389Z,32.17
2018-11-22T09:08:04.684Z,29.63
2018-11-22T09:10:36.147Z,32.33
2018-11-22T09:13:11.162Z,31.03
2018-11-22T09:15:40.913Z,29.83
2018-11-22T09:21:05.948Z,29.40
2018-11-22T09:23:38.486Z,32.93
2018-11-22T09:26:11.858Z,32.53
2018-11-22T09:28:56.388Z,31.27
2018-11-22T09:31:21.948Z,26.47
2018-11-22T09:36:30.799Z,30.00
2018-11-22T09:39:20.873Z,29.50
2018-11-22T09:44:22.726Z,27.73
2018-11-22T09:46:57.023Z,30.43
2018-11-22T09:49:38.872Z,28.30
2018-11-22T09:52:10.893Z,28.57
2018-11-22T09:54:44.613Z,26.17
2018-11-22T10:08:01.647Z,25.67
2018-11-22T10:13:56.156Z,26.30
2018-11-22T12:18:17.572Z,18.37
2018-11-22T12:21:08.404Z,22.20
2018-11-22T12:23:37.974Z,18.03
2018-11-22T12:26:07.158Z,18.07
2018-11-22T12:28:36.066Z,19.47
2018-11-22T12:31:06.722Z,18.80
2018-11-22T12:33:41.177Z,17.53
2018-11-22T12:36:15.160Z,17.80
2018-11-22T12:38:44.787Z,17.80
2018-11-22T12:41:14.860Z,17.87
2018-11-22T12:43:44.219Z,17.93
2018-11-22T12:46:13.199Z,18.50
2018-11-22T12:48:42.520Z,17.60
2018-11-22T12:51:13.503Z,17.87
2018-11-22T12:53:42.388Z,16.93
2018-11-22T12:56:11.803Z,18.23
2018-11-22T12:58:40.984Z,19.07
2018-11-22T13:01:09.890Z,18.77
2018-11-22T13:03:38.999Z,18.97
2018-11-22T13:06:07.968Z,17.40
2018-11-22T13:08:37.121Z,18.63
2018-11-22T13:11:06.544Z,18.90
2018-11-22T13:13:35.503Z,16.57
2018-11-22T13:16:04.568Z,17.80
2018-11-22T13:18:33.435Z,18.50
2018-11-22T13:21:02.376Z,16.50
2018-11-22T13:23:31.404Z,17.60
2018-11-22T13:26:00.276Z,16.67
2018-11-22T13:28:29.279Z,17.17
2018-11-22T13:30:58.316Z,19.03
2018-11-22T13:33:28.656Z,17.30
2018-11-22T13:35:58.151Z,18.77
2018-11-22T13:38:27.158Z,16.87
2018-11-22T13:40:56.217Z,18.53
2018-11-22T13:43:25.237Z,18.27
2018-11-22T13:45:54.146Z,18.27
2018-11-22T13:48:23.126Z,16.60
2018-11-22T13:50:52.096Z,19.30
2018-11-22T13:53:22.404Z,18.00
2018-11-22T13:55:51.315Z,19.57
2018-11-22T13:58:20.281Z,18.20
2018-11-22T14:00:49.184Z,17.67
2018-11-22T14:03:20.371Z,17.80
2018-11-22T14:05:49.294Z,18.53
2018-11-22T14:08:18.248Z,17.37
2018-11-22T14:10:47.207Z,21.23
2018-11-22T14:13:29.279Z,17.20
2018-11-22T14:15:58.222Z,20.30
2018-11-22T14:18:27.274Z,19.60
2018-11-22T14:20:56.260Z,20.13
2018-11-22T14:23:25.448Z,19.87
2018-11-22T14:25:54.815Z,21.30
2018-11-22T14:28:24.172Z,21.63
2018-11-22T14:30:53.155Z,20.00
2018-11-22T14:33:29.558Z,18.57
2018-11-22T14:36:01.536Z,22.17
2018-11-22T14:38:30.860Z,22.37
2018-11-22T14:40:59.835Z,21.57
2018-11-22T14:43:36.340Z,19.10
2018-11-22T14:46:05.444Z,18.70
2018-11-22T14:48:34.711Z,19.23
2018-11-22T14:51:15.812Z,20.60
2018-11-22T14:54:05.691Z,18.60
2018-11-22T14:56:35.040Z,19.80
2018-11-22T14:59:04.014Z,18.60
2018-11-22T15:01:33.451Z,18.77
2018-11-22T15:04:13.268Z,19.40
2018-11-22T15:06:42.216Z,18.33
2018-11-22T15:09:11.443Z,18.00
2018-11-22T15:11:40.318Z,21.50
2018-11-22T15:14:12.500Z,17.97
2018-11-22T15:16:41.350Z,21.07
2018-11-22T15:19:10.327Z,20.47
2018-11-22T15:21:39.200Z,18.60
2018-11-22T15:24:08.132Z,19.43
2018-11-22T15:26:37.006Z,20.63
2018-11-22T15:29:06.039Z,20.80
2018-11-22T15:31:35.034Z,18.50
2018-11-22T15:34:05.089Z,20.40
2018-11-22T15:36:33.952Z,21.80
2018-11-22T15:39:03.076Z,18.50
2018-11-22T15:41:32.040Z,19.63
2018-11-22T15:44:00.996Z,21.27
2018-11-22T15:46:29.955Z,18.97
2018-11-22T15:48:58.836Z,19.87
2018-11-22T15:51:27.772Z,19.53
2018-11-22T15:53:58.671Z,20.43
2018-11-22T15:56:27.687Z,20.50
2018-11-22T15:58:56.606Z,21.50
2018-11-22T16:01:26.600Z,18.00
2018-11-22T16:04:03.767Z,18.40
2018-11-22T16:06:32.911Z,20.10
2018-11-22T16:09:01.866Z,21.07
2018-11-22T16:11:30.848Z,20.03
2018-11-22T16:14:04.760Z,18.83
2018-11-22T16:16:33.763Z,18.63
2018-11-22T16:19:02.699Z,21.07
2018-11-22T16:21:31.943Z,19.43
2018-11-22T16:24:01.071Z,18.37
2018-11-22T16:26:30.605Z,21.80
2018-11-22T16:28:59.579Z,19.07
2018-11-22T16:31:29.335Z,19.97
2018-11-22T16:34:11.234Z,21.60
2018-11-22T16:36:40.243Z,19.37
2018-11-22T16:39:10.400Z,19.10
2018-11-22T16:41:39.444Z,17.60
2018-11-22T16:44:08.586Z,20.27
2018-11-22T16:46:37.591Z,18.83
2018-11-22T16:49:07.514Z,18.87
2018-11-22T16:51:36.581Z,18.30
2018-11-22T16:54:08.864Z,21.60
2018-11-22T16:56:37.840Z,20.43
2018-11-22T16:59:06.904Z,19.87
2018-11-22T17:01:35.931Z,18.77
2018-11-22T17:04:05.015Z,22.93
2018-11-22T17:06:34.040Z,22.13
2018-11-22T17:09:03.128Z,19.30
2018-11-22T17:11:33.387Z,19.30
2018-11-22T17:14:01.226Z,20.27
2018-11-22T17:16:30.626Z,19.40
2018-11-22T17:18:59.672Z,20.80
2018-11-22T17:21:28.699Z,18.43
2018-11-22T17:23:57.892Z,18.50
2018-11-22T17:26:26.842Z,21.20
2018-11-22T17:28:55.845Z,19.90
2018-11-22T17:31:24.740Z,19.40
2018-11-22T17:33:54.533Z,20.83
2018-11-22T17:36:23.963Z,21.53
2018-11-22T17:38:52.984Z,21.13
2018-11-22T17:41:22.056Z,18.00
2018-11-22T17:43:51.109Z,21.10
2018-11-22T17:46:20.231Z,20.73
2018-11-22T17:48:49.194Z,20.63
2018-11-22T17:51:18.137Z,19.53
2018-11-22T17:53:47.171Z,17.57
2018-11-22T17:56:16.270Z,20.30
2018-11-22T17:58:45.238Z,18.00
2018-11-22T18:01:14.730Z,18.30
2018-11-22T18:03:43.394Z,20.13
2018-11-22T18:06:12.439Z,18.13
2018-11-22T18:08:41.591Z,18.10
2018-11-22T18:11:10.611Z,15.87
2018-11-22T18:13:39.670Z,18.70
2018-11-22T18:16:08.738Z,18.43
2018-11-22T18:18:37.801Z,19.50
2018-11-22T18:21:07.519Z,17.77
2018-11-22T18:23:36.796Z,19.87
2018-11-22T18:26:06.161Z,17.83
2018-11-22T18:28:35.567Z,19.30
2018-11-22T18:31:04.627Z,17.57
2018-11-22T18:33:33.671Z,16.03
2018-11-22T18:36:02.731Z,18.90
2018-11-22T18:38:31.868Z,20.10
2018-11-22T18:41:01.776Z,17.60
2018-11-22T18:43:30.390Z,16.77
2018-11-22T18:45:59.594Z,19.83
2018-11-22T18:48:28.958Z,20.50
2018-11-22T18:50:58.332Z,20.33
2018-11-22T18:53:27.388Z,20.53
2018-11-22T18:55:56.458Z,20.37
2018-11-22T18:58:25.521Z,23.07
2018-11-22T19:00:54.487Z,22.90
2018-11-22T19:03:23.475Z,19.20
2018-11-22T19:05:52.484Z,20.07
2018-11-22T19:08:21.570Z,21.20
2018-11-22T19:10:50.689Z,23.03
2018-11-22T19:13:19.816Z,21.10
2018-11-22T19:15:49.681Z,21.37
2018-11-22T19:18:19.350Z,21.30
2018-11-22T19:20:48.409Z,20.80
2018-11-22T19:23:17.901Z,23.50
2018-11-22T19:25:46.993Z,20.40
2018-11-22T19:28:16.614Z,22.97
2018-11-22T19:30:46.914Z,21.97
2018-11-22T19:33:17.412Z,20.83
2018-11-22T19:35:48.365Z,22.87
2018-11-22T19:38:17.331Z,20.67
2018-11-22T19:40:46.384Z,22.47
2018-11-22T19:43:15.528Z,21.90
2018-11-22T19:45:46.771Z,23.60
2018-11-22T19:48:15.928Z,24.57
2018-11-22T19:50:45.308Z,22.07
2018-11-22T19:53:15.421Z,20.97
2018-11-22T19:55:44.913Z,22.40
2018-11-22T19:58:15.213Z,19.93
2018-11-22T20:00:44.472Z,21.70
2018-11-22T20:03:13.649Z,21.83
2018-11-22T20:05:43.275Z,23.00
2018-11-22T20:08:14.231Z,21.57
2018-11-22T20:10:44.574Z,21.67
2018-11-22T20:13:13.736Z,21.57
2018-11-22T20:15:42.934Z,23.93
2018-11-22T20:18:12.734Z,22.73
2018-11-22T20:20:43.060Z,24.00
2018-11-22T20:23:11.131Z,20.47
2018-11-22T20:25:40.460Z,23.43
2018-11-22T20:28:09.627Z,21.53
2018-11-22T20:30:40.479Z,21.00
2018-11-22T20:33:09.535Z,22.23
2018-11-22T20:35:38.556Z,23.20
2018-11-22T20:38:07.717Z,19.70
2018-11-22T20:40:36.818Z,21.33
2018-11-22T20:43:07.081Z,22.23
2018-11-22T20:45:40.744Z,22.57
2018-11-22T20:48:06.514Z,21.53
2018-11-22T20:50:36.051Z,22.30
2018-11-22T20:53:05.171Z,21.90
2018-11-22T20:55:35.774Z,25.40
2018-11-22T20:58:05.979Z,21.40
2018-11-22T21:00:36.922Z,25.17
2018-11-22T21:03:06.315Z,23.77
2018-11-22T21:05:35.350Z,22.50
2018-11-22T21:08:04.339Z,21.47
2018-11-22T21:10:34.000Z,20.67
2018-11-22T21:13:03.080Z,22.30
2018-11-22T21:15:33.039Z,20.67
2018-11-22T21:18:06.576Z,21.73
2018-11-22T21:20:37.939Z,21.97
2018-11-22T21:23:07.027Z,22.60
2018-11-22T21:25:35.988Z,22.53
2018-11-22T21:28:05.285Z,21.83
2018-11-22T21:30:35.749Z,21.13
2018-11-22T21:33:04.854Z,18.60
2018-11-22T21:35:34.387Z,18.10
2018-11-22T21:38:04.627Z,19.87
2018-11-22T21:40:34.266Z,17.20
2018-11-22T21:43:03.295Z,15.67
2018-11-22T21:45:33.346Z,18.20
2018-11-22T21:48:02.338Z,17.63
2018-11-22T21:50:31.419Z,17.57
2018-11-22T21:53:00.558Z,18.90
2018-11-22T21:55:30.152Z,20.13
2018-11-22T21:58:00.363Z,16.50
2018-11-22T22:00:40.602Z,16.73
2018-11-22T22:03:11.212Z,17.43
2018-11-22T22:05:43.180Z,18.77
2018-11-22T22:08:12.328Z,19.30
2018-11-22T22:10:41.420Z,19.03
2018-11-22T22:13:10.682Z,16.43
2018-11-22T22:15:40.020Z,19.83
2018-11-22T22:18:09.672Z,17.30
2018-11-22T22:20:38.856Z,17.37
2018-11-22T22:23:13.232Z,15.80
2018-11-22T22:25:37.312Z,17.33
2018-11-22T22:28:06.403Z,17.90
2018-11-22T22:30:35.956Z,18.90
2018-11-22T22:33:06.226Z,17.70
2018-11-22T22:35:35.474Z,18.70
2018-11-22T22:38:04.545Z,17.73
2018-11-22T22:40:34.176Z,19.07
2018-11-22T22:43:03.268Z,17.97
2018-11-22T22:45:33.323Z,18.20
2018-11-22T22:48:02.367Z,18.67
2018-11-22T22:50:31.965Z,18.70
2018-11-22T22:53:01.560Z,15.57
2018-11-22T22:55:31.391Z,19.70
2018-11-22T22:58:00.530Z,18.70
2018-11-22T23:00:35.062Z,19.80
2018-11-22T23:03:05.652Z,21.10
2018-11-22T23:05:34.935Z,18.83
2018-11-22T23:08:04.089Z,17.60
2018-11-22T23:10:33.286Z,18.03
2018-11-22T23:13:03.031Z,21.33
2018-11-22T23:15:32.581Z,19.17
2018-11-22T23:18:01.596Z,19.37
2018-11-22T23:20:32.916Z,15.90
2018-11-22T23:23:01.994Z,19.17
2018-11-22T23:25:31.216Z,18.40
2018-11-22T23:28:00.278Z,16.63
2018-11-22T23:30:33.376Z,18.43
2018-11-22T23:33:03.913Z,20.60
2018-11-22T23:35:33.054Z,21.17
2018-11-22T23:38:02.200Z,19.47
2018-11-22T23:40:32.192Z,17.23
2018-11-22T23:43:01.355Z,20.37
2018-11-22T23:45:31.525Z,17.47
2018-11-22T23:48:00.696Z,19.90
2018-11-22T23:50:30.966Z,19.93
2018-11-22T23:53:01.096Z,18.63
2018-11-22T23:55:30.300Z,17.27
2018-11-22T23:57:59.413Z,18.37
